sensor_id;sensor_type;location;lat;lon;timestamp;P1;durP1;ratioP1;P2;durP2;ratioP2
18875;SDS011;9570;50.854;13.778;2023-03-16T00:02:00;8.52;;;3.47;;
18875;SDS011;9570;50.854;13.778;2023-03-16T00:04:25;6.30;;;3.13;;
18875;SDS011;9570;50.854;13.778;2023-03-16T00:06:51;5.17;;;3.30;;
18875;SDS011;9570;50.854;13.778;2023-03-16T00:09:16;5.07;;;3.40;;
18875;SDS011;9570;50.854;13.778;2023-03-16T00:11:42;7.20;;;3.63;;
18875;SDS011;9570;50.854;13.778;2023-03-16T00:14:07;5.07;;;2.73;;
18875;SDS011;9570;50.854;13.778;2023-03-16T00:16:33;7.57;;;3.50;;
18875;SDS011;9570;50.854;13.778;2023-03-16T00:18:59;6.53;;;3.17;;
18875;SDS011;9570;50.854;13.778;2023-03-16T00:21:27;5.55;;;3.55;;
18875;SDS011;9570;50.854;13.778;2023-03-16T00:23:54;5.82;;;3.10;;
18875;SDS011;9570;50.854;13.778;2023-03-16T00:26:19;6.43;;;3.23;;
18875;SDS011;9570;50.854;13.778;2023-03-16T00:28:46;7.45;;;3.30;;
18875;SDS011;9570;50.854;13.778;2023-03-16T00:31:11;3.67;;;3.23;;
18875;SDS011;9570;50.854;13.778;2023-03-16T00:33:37;8.63;;;3.23;;
18875;SDS011;9570;50.854;13.778;2023-03-16T00:36:04;4.80;;;2.90;;
18875;SDS011;9570;50.854;13.778;2023-03-16T00:38:34;6.10;;;2.92;;
18875;SDS011;9570;50.854;13.778;2023-03-16T00:41:01;5.18;;;3.28;;
18875;SDS011;9570;50.854;13.778;2023-03-16T00:43:31;8.98;;;3.50;;
18875;SDS011;9570;50.854;13.778;2023-03-16T00:46:04;6.07;;;3.40;;
18875;SDS011;9570;50.854;13.778;2023-03-16T00:48:41;4.20;;;3.42;;
18875;SDS011;9570;50.854;13.778;2023-03-16T00:51:12;6.10;;;3.40;;
18875;SDS011;9570;50.854;13.778;2023-03-16T00:53:40;3.72;;;3.13;;
18875;SDS011;9570;50.854;13.778;2023-03-16T00:56:07;7.03;;;3.20;;
18875;SDS011;9570;50.854;13.778;2023-03-16T00:58:34;7.70;;;3.33;;
18875;SDS011;9570;50.854;13.778;2023-03-16T01:01:01;5.32;;;3.42;;
18875;SDS011;9570;50.854;13.778;2023-03-16T01:03:31;6.22;;;3.22;;
18875;SDS011;9570;50.854;13.778;2023-03-16T01:05:57;5.88;;;3.67;;
18875;SDS011;9570;50.854;13.778;2023-03-16T01:08:27;6.30;;;4.35;;
18875;SDS011;9570;50.854;13.778;2023-03-16T01:10:55;5.60;;;3.63;;
18875;SDS011;9570;50.854;13.778;2023-03-16T01:13:25;7.00;;;3.80;;
18875;SDS011;9570;50.854;13.778;2023-03-16T01:15:51;6.80;;;3.90;;
18875;SDS011;9570;50.854;13.778;2023-03-16T01:18:16;6.43;;;3.70;;
18875;SDS011;9570;50.854;13.778;2023-03-16T01:20:42;7.07;;;3.70;;
18875;SDS011;9570;50.854;13.778;2023-03-16T01:23:14;8.48;;;3.42;;
18875;SDS011;9570;50.854;13.778;2023-03-16T01:25:41;5.53;;;3.83;;
18875;SDS011;9570;50.854;13.778;2023-03-16T01:28:07;7.50;;;3.95;;
18875;SDS011;9570;50.854;13.778;2023-03-16T01:30:33;6.07;;;3.80;;
18875;SDS011;9570;50.854;13.778;2023-03-16T01:32:59;6.25;;;3.67;;
18875;SDS011;9570;50.854;13.778;2023-03-16T01:35:25;4.23;;;3.53;;
18875;SDS011;9570;50.854;13.778;2023-03-16T01:37:50;6.00;;;4.47;;
18875;SDS011;9570;50.854;13.778;2023-03-16T01:40:16;5.70;;;3.87;;
18875;SDS011;9570;50.854;13.778;2023-03-16T01:42:48;6.70;;;3.87;;
18875;SDS011;9570;50.854;13.778;2023-03-16T01:48:20;6.82;;;3.63;;
18875;SDS011;9570;50.854;13.778;2023-03-16T01:50:46;6.68;;;3.70;;
18875;SDS011;9570;50.854;13.778;2023-03-16T01:53:12;6.20;;;4.10;;
18875;SDS011;9570;50.854;13.778;2023-03-16T01:55:38;5.03;;;3.80;;
18875;SDS011;9570;50.854;13.778;2023-03-16T01:58:04;8.15;;;4.18;;
18875;SDS011;9570;50.854;13.778;2023-03-16T02:00:30;7.63;;;3.73;;
18875;SDS011;9570;50.854;13.778;2023-03-16T02:02:57;7.93;;;3.97;;
18875;SDS011;9570;50.854;13.778;2023-03-16T02:05:28;7.82;;;4.25;;
18875;SDS011;9570;50.854;13.778;2023-03-16T02:07:58;7.43;;;4.03;;
18875;SDS011;9570;50.854;13.778;2023-03-16T02:10:26;7.20;;;3.83;;
18875;SDS011;9570;50.854;13.778;2023-03-16T02:12:53;6.50;;;4.03;;
18875;SDS011;9570;50.854;13.778;2023-03-16T02:15:18;6.97;;;3.93;;
18875;SDS011;9570;50.854;13.778;2023-03-16T02:17:45;7.87;;;3.80;;
18875;SDS011;9570;50.854;13.778;2023-03-16T02:22:58;5.85;;;3.63;;
18875;SDS011;9570;50.854;13.778;2023-03-16T02:28:33;5.72;;;3.58;;
18875;SDS011;9570;50.854;13.778;2023-03-16T02:31:14;6.95;;;3.72;;
18875;SDS011;9570;50.854;13.778;2023-03-16T02:33:41;4.93;;;3.50;;
18875;SDS011;9570;50.854;13.778;2023-03-16T02:36:08;4.28;;;3.53;;
18875;SDS011;9570;50.854;13.778;2023-03-16T02:38:34;4.73;;;3.37;;
18875;SDS011;9570;50.854;13.778;2023-03-16T02:41:10;5.30;;;3.83;;
18875;SDS011;9570;50.854;13.778;2023-03-16T02:43:39;7.75;;;3.72;;
18875;SDS011;9570;50.854;13.778;2023-03-16T02:46:10;6.70;;;3.80;;
18875;SDS011;9570;50.854;13.778;2023-03-16T02:48:48;6.88;;;3.60;;
18875;SDS011;9570;50.854;13.778;2023-03-16T02:51:19;6.80;;;3.83;;
18875;SDS011;9570;50.854;13.778;2023-03-16T02:53:44;5.50;;;3.23;;
18875;SDS011;9570;50.854;13.778;2023-03-16T02:56:10;5.93;;;3.50;;
18875;SDS011;9570;50.854;13.778;2023-03-16T02:58:35;8.17;;;3.40;;
18875;SDS011;9570;50.854;13.778;2023-03-16T03:01:01;7.47;;;3.17;;
18875;SDS011;9570;50.854;13.778;2023-03-16T03:03:27;8.50;;;4.35;;
18875;SDS011;9570;50.854;13.778;2023-03-16T03:05:53;5.90;;;3.20;;
18875;SDS011;9570;50.854;13.778;2023-03-16T03:08:18;4.57;;;3.07;;
18875;SDS011;9570;50.854;13.778;2023-03-16T03:10:46;8.30;;;3.92;;
18875;SDS011;9570;50.854;13.778;2023-03-16T03:13:12;5.73;;;3.07;;
18875;SDS011;9570;50.854;13.778;2023-03-16T03:15:38;6.50;;;3.40;;
18875;SDS011;9570;50.854;13.778;2023-03-16T03:18:04;6.32;;;3.35;;
18875;SDS011;9570;50.854;13.778;2023-03-16T03:20:30;5.50;;;3.67;;
18875;SDS011;9570;50.854;13.778;2023-03-16T03:22:55;5.47;;;3.17;;
18875;SDS011;9570;50.854;13.778;2023-03-16T03:25:21;8.17;;;3.67;;
18875;SDS011;9570;50.854;13.778;2023-03-16T03:27:47;5.32;;;2.95;;
18875;SDS011;9570;50.854;13.778;2023-03-16T03:30:16;6.90;;;3.25;;
18875;SDS011;9570;50.854;13.778;2023-03-16T03:32:43;4.50;;;3.00;;
18875;SDS011;9570;50.854;13.778;2023-03-16T03:35:10;4.83;;;3.40;;
18875;SDS011;9570;50.854;13.778;2023-03-16T03:37:37;5.63;;;3.42;;
18875;SDS011;9570;50.854;13.778;2023-03-16T03:40:05;6.40;;;3.40;;
18875;SDS011;9570;50.854;13.778;2023-03-16T03:42:31;6.05;;;3.08;;
18875;SDS011;9570;50.854;13.778;2023-03-16T03:44:56;7.10;;;3.27;;
18875;SDS011;9570;50.854;13.778;2023-03-16T03:47:22;4.93;;;3.13;;
18875;SDS011;9570;50.854;13.778;2023-03-16T03:49:47;4.33;;;3.03;;
18875;SDS011;9570;50.854;13.778;2023-03-16T03:52:13;4.87;;;2.83;;
18875;SDS011;9570;50.854;13.778;2023-03-16T03:54:38;4.97;;;3.13;;
18875;SDS011;9570;50.854;13.778;2023-03-16T03:57:04;5.83;;;3.20;;
18875;SDS011;9570;50.854;13.778;2023-03-16T03:59:29;6.70;;;3.30;;
18875;SDS011;9570;50.854;13.778;2023-03-16T04:01:55;4.47;;;3.00;;
18875;SDS011;9570;50.854;13.778;2023-03-16T04:04:21;4.57;;;2.90;;
18875;SDS011;9570;50.854;13.778;2023-03-16T04:06:47;4.87;;;2.90;;
18875;SDS011;9570;50.854;13.778;2023-03-16T04:09:12;5.33;;;3.40;;
18875;SDS011;9570;50.854;13.778;2023-03-16T04:11:38;3.80;;;2.93;;
18875;SDS011;9570;50.854;13.778;2023-03-16T04:14:04;5.33;;;3.10;;
18875;SDS011;9570;50.854;13.778;2023-03-16T04:16:30;3.97;;;2.53;;
18875;SDS011;9570;50.854;13.778;2023-03-16T04:18:56;6.22;;;3.03;;
18875;SDS011;9570;50.854;13.778;2023-03-16T04:21:22;5.53;;;2.90;;
18875;SDS011;9570;50.854;13.778;2023-03-16T04:23:48;5.88;;;3.60;;
18875;SDS011;9570;50.854;13.778;2023-03-16T04:26:18;4.63;;;3.15;;
18875;SDS011;9570;50.854;13.778;2023-03-16T04:28:44;5.65;;;2.63;;
18875;SDS011;9570;50.854;13.778;2023-03-16T04:31:09;4.13;;;2.83;;
18875;SDS011;9570;50.854;13.778;2023-03-16T04:33:36;6.47;;;3.10;;
18875;SDS011;9570;50.854;13.778;2023-03-16T04:36:03;5.13;;;2.85;;
18875;SDS011;9570;50.854;13.778;2023-03-16T04:38:29;4.47;;;3.38;;
18875;SDS011;9570;50.854;13.778;2023-03-16T04:40:59;7.57;;;2.88;;
18875;SDS011;9570;50.854;13.778;2023-03-16T04:43:25;3.92;;;2.80;;
18875;SDS011;9570;50.854;13.778;2023-03-16T04:45:52;4.65;;;2.92;;
18875;SDS011;9570;50.854;13.778;2023-03-16T04:48:18;3.90;;;2.90;;
18875;SDS011;9570;50.854;13.778;2023-03-16T04:50:44;6.60;;;2.90;;
18875;SDS011;9570;50.854;13.778;2023-03-16T04:53:09;4.40;;;2.40;;
18875;SDS011;9570;50.854;13.778;2023-03-16T04:55:35;4.37;;;2.67;;
18875;SDS011;9570;50.854;13.778;2023-03-16T04:58:00;4.50;;;2.50;;
18875;SDS011;9570;50.854;13.778;2023-03-16T05:00:26;4.70;;;2.97;;
18875;SDS011;9570;50.854;13.778;2023-03-16T05:02:52;5.85;;;2.80;;
18875;SDS011;9570;50.854;13.778;2023-03-16T05:05:18;3.90;;;2.50;;
18875;SDS011;9570;50.854;13.778;2023-03-16T05:07:45;5.22;;;2.90;;
18875;SDS011;9570;50.854;13.778;2023-03-16T05:10:11;6.83;;;3.00;;
18875;SDS011;9570;50.854;13.778;2023-03-16T05:12:38;5.72;;;3.42;;
18875;SDS011;9570;50.854;13.778;2023-03-16T05:15:04;7.27;;;3.03;;
18875;SDS011;9570;50.854;13.778;2023-03-16T05:17:30;5.10;;;3.45;;
18875;SDS011;9570;50.854;13.778;2023-03-16T05:19:56;8.10;;;3.20;;
18875;SDS011;9570;50.854;13.778;2023-03-16T05:22:22;5.93;;;2.90;;
18875;SDS011;9570;50.854;13.778;2023-03-16T05:24:47;6.00;;;3.70;;
18875;SDS011;9570;50.854;13.778;2023-03-16T05:27:13;4.53;;;2.70;;
18875;SDS011;9570;50.854;13.778;2023-03-16T05:29:38;6.20;;;3.37;;
18875;SDS011;9570;50.854;13.778;2023-03-16T05:32:04;6.10;;;3.40;;
18875;SDS011;9570;50.854;13.778;2023-03-16T05:34:30;5.77;;;2.63;;
18875;SDS011;9570;50.854;13.778;2023-03-16T05:36:55;4.03;;;2.67;;
18875;SDS011;9570;50.854;13.778;2023-03-16T05:39:21;5.00;;;3.37;;
18875;SDS011;9570;50.854;13.778;2023-03-16T05:41:47;6.80;;;3.08;;
18875;SDS011;9570;50.854;13.778;2023-03-16T05:44:12;7.53;;;2.97;;
18875;SDS011;9570;50.854;13.778;2023-03-16T05:46:38;5.53;;;3.30;;
18875;SDS011;9570;50.854;13.778;2023-03-16T05:49:03;5.87;;;3.20;;
18875;SDS011;9570;50.854;13.778;2023-03-16T05:51:29;6.70;;;3.40;;
18875;SDS011;9570;50.854;13.778;2023-03-16T05:53:54;6.37;;;2.90;;
18875;SDS011;9570;50.854;13.778;2023-03-16T05:56:21;5.63;;;3.63;;
18875;SDS011;9570;50.854;13.778;2023-03-16T05:58:48;4.47;;;2.95;;
18875;SDS011;9570;50.854;13.778;2023-03-16T06:01:14;6.07;;;3.33;;
18875;SDS011;9570;50.854;13.778;2023-03-16T06:03:39;6.33;;;3.33;;
18875;SDS011;9570;50.854;13.778;2023-03-16T06:06:05;6.20;;;3.23;;
18875;SDS011;9570;50.854;13.778;2023-03-16T06:08:31;5.10;;;3.60;;
18875;SDS011;9570;50.854;13.778;2023-03-16T06:10:56;9.33;;;4.33;;
18875;SDS011;9570;50.854;13.778;2023-03-16T06:13:22;6.03;;;3.60;;
18875;SDS011;9570;50.854;13.778;2023-03-16T06:15:48;5.37;;;3.73;;
18875;SDS011;9570;50.854;13.778;2023-03-16T06:18:13;4.40;;;3.33;;
18875;SDS011;9570;50.854;13.778;2023-03-16T06:20:39;6.37;;;3.70;;
18875;SDS011;9570;50.854;13.778;2023-03-16T06:23:04;6.47;;;3.17;;
18875;SDS011;9570;50.854;13.778;2023-03-16T06:25:30;4.67;;;3.40;;
18875;SDS011;9570;50.854;13.778;2023-03-16T06:27:55;8.80;;;3.87;;
18875;SDS011;9570;50.854;13.778;2023-03-16T06:30:21;6.70;;;3.17;;
18875;SDS011;9570;50.854;13.778;2023-03-16T06:32:46;3.70;;;3.10;;
18875;SDS011;9570;50.854;13.778;2023-03-16T06:35:12;5.47;;;3.37;;
18875;SDS011;9570;50.854;13.778;2023-03-16T06:37:38;7.03;;;3.53;;
18875;SDS011;9570;50.854;13.778;2023-03-16T06:40:03;6.33;;;3.00;;
18875;SDS011;9570;50.854;13.778;2023-03-16T06:42:29;6.40;;;4.15;;
18875;SDS011;9570;50.854;13.778;2023-03-16T06:44:55;7.30;;;4.10;;
18875;SDS011;9570;50.854;13.778;2023-03-16T06:47:20;7.47;;;3.70;;
18875;SDS011;9570;50.854;13.778;2023-03-16T06:49:46;9.20;;;4.97;;
18875;SDS011;9570;50.854;13.778;2023-03-16T06:52:12;8.50;;;3.67;;
18875;SDS011;9570;50.854;13.778;2023-03-16T06:54:38;5.32;;;3.70;;
18875;SDS011;9570;50.854;13.778;2023-03-16T06:57:05;4.65;;;3.28;;
18875;SDS011;9570;50.854;13.778;2023-03-16T06:59:30;4.37;;;3.10;;
18875;SDS011;9570;50.854;13.778;2023-03-16T07:01:56;6.60;;;4.17;;
18875;SDS011;9570;50.854;13.778;2023-03-16T07:04:21;8.47;;;4.27;;
18875;SDS011;9570;50.854;13.778;2023-03-16T07:06:47;10.57;;;4.00;;
18875;SDS011;9570;50.854;13.778;2023-03-16T07:09:12;9.27;;;4.97;;
18875;SDS011;9570;50.854;13.778;2023-03-16T07:11:38;9.23;;;4.53;;
18875;SDS011;9570;50.854;13.778;2023-03-16T07:14:04;8.13;;;4.53;;
18875;SDS011;9570;50.854;13.778;2023-03-16T07:16:29;8.50;;;4.53;;
18875;SDS011;9570;50.854;13.778;2023-03-16T07:18:56;6.70;;;2.97;;
18875;SDS011;9570;50.854;13.778;2023-03-16T07:21:22;9.13;;;3.93;;
18875;SDS011;9570;50.854;13.778;2023-03-16T07:23:47;7.30;;;3.77;;
18875;SDS011;9570;50.854;13.778;2023-03-16T07:26:13;6.53;;;3.60;;
18875;SDS011;9570;50.854;13.778;2023-03-16T07:28:38;7.63;;;3.27;;
18875;SDS011;9570;50.854;13.778;2023-03-16T07:31:04;5.17;;;2.93;;
18875;SDS011;9570;50.854;13.778;2023-03-16T07:33:34;4.53;;;3.07;;
18875;SDS011;9570;50.854;13.778;2023-03-16T07:36:00;7.40;;;3.20;;
18875;SDS011;9570;50.854;13.778;2023-03-16T07:38:29;6.77;;;2.73;;
18875;SDS011;9570;50.854;13.778;2023-03-16T07:41:00;6.73;;;3.20;;
18875;SDS011;9570;50.854;13.778;2023-03-16T07:43:26;7.50;;;3.40;;
18875;SDS011;9570;50.854;13.778;2023-03-16T07:45:53;7.37;;;2.93;;
18875;SDS011;9570;50.854;13.778;2023-03-16T07:48:18;8.17;;;3.53;;
18875;SDS011;9570;50.854;13.778;2023-03-16T07:50:48;5.03;;;2.50;;
18875;SDS011;9570;50.854;13.778;2023-03-16T07:53:13;6.83;;;2.43;;
18875;SDS011;9570;50.854;13.778;2023-03-16T07:55:39;5.10;;;2.37;;
18875;SDS011;9570;50.854;13.778;2023-03-16T07:58:06;3.63;;;1.70;;
18875;SDS011;9570;50.854;13.778;2023-03-16T08:00:32;4.80;;;2.20;;
18875;SDS011;9570;50.854;13.778;2023-03-16T08:02:58;4.40;;;1.90;;
18875;SDS011;9570;50.854;13.778;2023-03-16T08:05:24;3.77;;;1.70;;
18875;SDS011;9570;50.854;13.778;2023-03-16T08:07:50;4.10;;;1.50;;
18875;SDS011;9570;50.854;13.778;2023-03-16T08:10:16;6.67;;;2.23;;
18875;SDS011;9570;50.854;13.778;2023-03-16T08:12:42;3.80;;;1.70;;
18875;SDS011;9570;50.854;13.778;2023-03-16T08:15:08;3.67;;;1.30;;
18875;SDS011;9570;50.854;13.778;2023-03-16T08:17:34;3.37;;;1.20;;
18875;SDS011;9570;50.854;13.778;2023-03-16T08:20:01;6.10;;;1.40;;
18875;SDS011;9570;50.854;13.778;2023-03-16T08:22:32;5.77;;;1.60;;
18875;SDS011;9570;50.854;13.778;2023-03-16T08:24:57;5.03;;;1.37;;
18875;SDS011;9570;50.854;13.778;2023-03-16T08:27:23;3.90;;;1.57;;
18875;SDS011;9570;50.854;13.778;2023-03-16T08:29:52;4.40;;;1.60;;
18875;SDS011;9570;50.854;13.778;2023-03-16T08:32:18;4.03;;;1.50;;
18875;SDS011;9570;50.854;13.778;2023-03-16T08:34:44;2.53;;;1.30;;
18875;SDS011;9570;50.854;13.778;2023-03-16T08:37:09;6.17;;;1.80;;
18875;SDS011;9570;50.854;13.778;2023-03-16T08:39:36;4.67;;;1.23;;
18875;SDS011;9570;50.854;13.778;2023-03-16T08:42:07;2.43;;;1.40;;
18875;SDS011;9570;50.854;13.778;2023-03-16T08:44:39;4.10;;;1.37;;
18875;SDS011;9570;50.854;13.778;2023-03-16T08:47:05;5.53;;;1.40;;
18875;SDS011;9570;50.854;13.778;2023-03-16T08:49:30;3.67;;;1.60;;
18875;SDS011;9570;50.854;13.778;2023-03-16T08:51:57;4.97;;;1.27;;
18875;SDS011;9570;50.854;13.778;2023-03-16T08:54:24;5.60;;;1.60;;
18875;SDS011;9570;50.854;13.778;2023-03-16T08:56:49;3.33;;;1.43;;
18875;SDS011;9570;50.854;13.778;2023-03-16T08:59:15;3.90;;;1.57;;
18875;SDS011;9570;50.854;13.778;2023-03-16T09:01:41;1.97;;;1.20;;
18875;SDS011;9570;50.854;13.778;2023-03-16T09:04:06;3.03;;;1.40;;
18875;SDS011;9570;50.854;13.778;2023-03-16T09:06:32;3.70;;;1.70;;
18875;SDS011;9570;50.854;13.778;2023-03-16T09:08:57;3.17;;;1.57;;
18875;SDS011;9570;50.854;13.778;2023-03-16T09:11:23;3.73;;;1.33;;
18875;SDS011;9570;50.854;13.778;2023-03-16T09:13:52;5.23;;;1.60;;
18875;SDS011;9570;50.854;13.778;2023-03-16T09:16:18;2.53;;;1.40;;
18875;SDS011;9570;50.854;13.778;2023-03-16T09:18:44;4.50;;;1.80;;
18875;SDS011;9570;50.854;13.778;2023-03-16T09:21:10;9.50;;;2.10;;
18875;SDS011;9570;50.854;13.778;2023-03-16T09:23:39;4.93;;;1.60;;
18875;SDS011;9570;50.854;13.778;2023-03-16T09:26:06;3.77;;;1.50;;
18875;SDS011;9570;50.854;13.778;2023-03-16T09:28:32;3.47;;;1.60;;
18875;SDS011;9570;50.854;13.778;2023-03-16T09:31:00;3.70;;;1.63;;
18875;SDS011;9570;50.854;13.778;2023-03-16T09:33:27;4.20;;;1.87;;
18875;SDS011;9570;50.854;13.778;2023-03-16T09:35:53;3.53;;;1.53;;
18875;SDS011;9570;50.854;13.778;2023-03-16T09:38:21;5.20;;;1.80;;
18875;SDS011;9570;50.854;13.778;2023-03-16T09:40:50;5.57;;;1.80;;
18875;SDS011;9570;50.854;13.778;2023-03-16T09:43:31;3.57;;;1.53;;
18875;SDS011;9570;50.854;13.778;2023-03-16T09:46:08;5.53;;;1.60;;
18875;SDS011;9570;50.854;13.778;2023-03-16T09:48:49;4.90;;;2.13;;
18875;SDS011;9570;50.854;13.778;2023-03-16T09:51:17;3.67;;;1.37;;
18875;SDS011;9570;50.854;13.778;2023-03-16T09:53:47;4.93;;;1.50;;
18875;SDS011;9570;50.854;13.778;2023-03-16T09:56:19;4.83;;;1.80;;
18875;SDS011;9570;50.854;13.778;2023-03-16T09:58:53;3.13;;;1.60;;
18875;SDS011;9570;50.854;13.778;2023-03-16T10:09:35;5.10;;;1.90;;
18875;SDS011;9570;50.854;13.778;2023-03-16T10:12:12;6.47;;;2.10;;
18875;SDS011;9570;50.854;13.778;2023-03-16T10:17:12;4.77;;;1.60;;
18875;SDS011;9570;50.854;13.778;2023-03-16T10:19:50;4.57;;;1.50;;
18875;SDS011;9570;50.854;13.778;2023-03-16T10:22:26;5.27;;;1.57;;
18875;SDS011;9570;50.854;13.778;2023-03-16T10:27:44;4.40;;;1.67;;
18875;SDS011;9570;50.854;13.778;2023-03-16T10:32:45;3.77;;;1.80;;
18875;SDS011;9570;50.854;13.778;2023-03-16T10:35:28;4.53;;;1.70;;
18875;SDS011;9570;50.854;13.778;2023-03-16T10:38:23;6.97;;;1.83;;
18875;SDS011;9570;50.854;13.778;2023-03-16T10:40:56;3.20;;;1.67;;
18875;SDS011;9570;50.854;13.778;2023-03-16T10:43:23;6.03;;;1.47;;
18875;SDS011;9570;50.854;13.778;2023-03-16T10:45:49;3.40;;;1.60;;
18875;SDS011;9570;50.854;13.778;2023-03-16T10:48:15;4.67;;;1.50;;
18875;SDS011;9570;50.854;13.778;2023-03-16T10:50:43;4.60;;;1.40;;
18875;SDS011;9570;50.854;13.778;2023-03-16T10:53:24;3.33;;;1.90;;
18875;SDS011;9570;50.854;13.778;2023-03-16T10:55:57;8.40;;;4.67;;
18875;SDS011;9570;50.854;13.778;2023-03-16T10:58:25;5.67;;;1.60;;
18875;SDS011;9570;50.854;13.778;2023-03-16T11:00:54;4.43;;;1.33;;
18875;SDS011;9570;50.854;13.778;2023-03-16T11:03:20;4.07;;;2.20;;
18875;SDS011;9570;50.854;13.778;2023-03-16T11:06:03;4.80;;;1.93;;
18875;SDS011;9570;50.854;13.778;2023-03-16T11:08:31;4.10;;;1.43;;
18875;SDS011;9570;50.854;13.778;2023-03-16T11:10:59;2.57;;;1.37;;
18875;SDS011;9570;50.854;13.778;2023-03-16T11:13:37;3.77;;;1.57;;
18875;SDS011;9570;50.854;13.778;2023-03-16T11:18:57;2.10;;;1.20;;
18875;SDS011;9570;50.854;13.778;2023-03-16T11:24:44;2.43;;;1.33;;
18875;SDS011;9570;50.854;13.778;2023-03-16T11:27:32;2.47;;;1.30;;
18875;SDS011;9570;50.854;13.778;2023-03-16T11:32:49;3.83;;;1.63;;
18875;SDS011;9570;50.854;13.778;2023-03-16T11:35:18;3.63;;;1.60;;
18875;SDS011;9570;50.854;13.778;2023-03-16T11:38:07;2.43;;;1.17;;
18875;SDS011;9570;50.854;13.778;2023-03-16T11:40:52;3.73;;;1.70;;
18875;SDS011;9570;50.854;13.778;2023-03-16T11:43:34;4.10;;;1.67;;
18875;SDS011;9570;50.854;13.778;2023-03-16T11:46:21;2.80;;;1.50;;
18875;SDS011;9570;50.854;13.778;2023-03-16T11:49:07;4.27;;;1.60;;
18875;SDS011;9570;50.854;13.778;2023-03-16T11:52:00;3.47;;;1.43;;
18875;SDS011;9570;50.854;13.778;2023-03-16T12:03:14;4.17;;;1.73;;
18875;SDS011;9570;50.854;13.778;2023-03-16T12:12:00;10.43;;;2.50;;
18875;SDS011;9570;50.854;13.778;2023-03-16T12:14:42;6.50;;;3.37;;
18875;SDS011;9570;50.854;13.778;2023-03-16T12:17:16;3.40;;;1.93;;
18875;SDS011;9570;50.854;13.778;2023-03-16T12:19:59;3.33;;;1.70;;
18875;SDS011;9570;50.854;13.778;2023-03-16T12:25:19;4.60;;;1.90;;
18875;SDS011;9570;50.854;13.778;2023-03-16T12:27:50;4.43;;;2.13;;
18875;SDS011;9570;50.854;13.778;2023-03-16T12:32:51;3.67;;;1.97;;
18875;SDS011;9570;50.854;13.778;2023-03-16T12:38:30;3.90;;;2.10;;
18875;SDS011;9570;50.854;13.778;2023-03-16T12:44:18;4.53;;;2.03;;
18875;SDS011;9570;50.854;13.778;2023-03-16T12:46:52;3.17;;;1.90;;
18875;SDS011;9570;50.854;13.778;2023-03-16T12:49:36;4.63;;;1.83;;
18875;SDS011;9570;50.854;13.778;2023-03-16T12:52:04;4.17;;;1.73;;
18875;SDS011;9570;50.854;13.778;2023-03-16T12:54:32;6.27;;;2.10;;
18875;SDS011;9570;50.854;13.778;2023-03-16T12:57:05;4.07;;;1.70;;
18875;SDS011;9570;50.854;13.778;2023-03-16T12:59:36;8.57;;;2.37;;
18875;SDS011;9570;50.854;13.778;2023-03-16T13:02:33;5.07;;;2.17;;
18875;SDS011;9570;50.854;13.778;2023-03-16T13:05:08;4.37;;;1.80;;
18875;SDS011;9570;50.854;13.778;2023-03-16T13:07:37;3.13;;;1.87;;
18875;SDS011;9570;50.854;13.778;2023-03-16T13:10:14;4.60;;;1.87;;
18875;SDS011;9570;50.854;13.778;2023-03-16T13:12:41;4.50;;;1.93;;
18875;SDS011;9570;50.854;13.778;2023-03-16T13:17:46;7.83;;;2.40;;
18875;SDS011;9570;50.854;13.778;2023-03-16T13:20:29;4.70;;;1.77;;
18875;SDS011;9570;50.854;13.778;2023-03-16T13:23:06;3.27;;;1.80;;
18875;SDS011;9570;50.854;13.778;2023-03-16T13:25:41;6.27;;;1.97;;
18875;SDS011;9570;50.854;13.778;2023-03-16T13:28:25;3.53;;;1.80;;
18875;SDS011;9570;50.854;13.778;2023-03-16T13:30:55;4.50;;;1.83;;
18875;SDS011;9570;50.854;13.778;2023-03-16T13:33:24;4.50;;;2.00;;
18875;SDS011;9570;50.854;13.778;2023-03-16T13:35:52;3.70;;;2.20;;
18875;SDS011;9570;50.854;13.778;2023-03-16T13:38:20;7.50;;;2.20;;
18875;SDS011;9570;50.854;13.778;2023-03-16T13:40:51;4.90;;;2.37;;
18875;SDS011;9570;50.854;13.778;2023-03-16T13:43:21;2.77;;;1.90;;
18875;SDS011;9570;50.854;13.778;2023-03-16T13:45:52;4.47;;;1.90;;
18875;SDS011;9570;50.854;13.778;2023-03-16T13:48:18;4.17;;;2.03;;
18875;SDS011;9570;50.854;13.778;2023-03-16T13:50:45;6.37;;;2.10;;
18875;SDS011;9570;50.854;13.778;2023-03-16T13:53:26;4.77;;;2.27;;
18875;SDS011;9570;50.854;13.778;2023-03-16T13:55:53;5.33;;;2.30;;
18875;SDS011;9570;50.854;13.778;2023-03-16T13:58:38;8.37;;;2.10;;
18875;SDS011;9570;50.854;13.778;2023-03-16T14:01:15;6.00;;;2.30;;
18875;SDS011;9570;50.854;13.778;2023-03-16T14:03:49;4.30;;;2.43;;
18875;SDS011;9570;50.854;13.778;2023-03-16T14:06:26;4.60;;;2.50;;
18875;SDS011;9570;50.854;13.778;2023-03-16T14:08:57;6.13;;;2.50;;
18875;SDS011;9570;50.854;13.778;2023-03-16T14:11:26;4.67;;;2.60;;
18875;SDS011;9570;50.854;13.778;2023-03-16T14:13:53;6.13;;;2.70;;
18875;SDS011;9570;50.854;13.778;2023-03-16T14:16:24;5.80;;;2.97;;
18875;SDS011;9570;50.854;13.778;2023-03-16T14:19:06;4.50;;;2.80;;
18875;SDS011;9570;50.854;13.778;2023-03-16T14:21:43;5.67;;;3.00;;
18875;SDS011;9570;50.854;13.778;2023-03-16T14:24:25;3.87;;;2.80;;
18875;SDS011;9570;50.854;13.778;2023-03-16T14:27:21;5.53;;;2.87;;
18875;SDS011;9570;50.854;13.778;2023-03-16T14:29:54;6.43;;;3.10;;
18875;SDS011;9570;50.854;13.778;2023-03-16T14:32:25;5.93;;;3.30;;
18875;SDS011;9570;50.854;13.778;2023-03-16T14:37:40;6.60;;;3.73;;
18875;SDS011;9570;50.854;13.778;2023-03-16T14:40:17;5.87;;;3.47;;
18875;SDS011;9570;50.854;13.778;2023-03-16T14:42:53;5.67;;;3.40;;
18875;SDS011;9570;50.854;13.778;2023-03-16T14:45:20;5.90;;;4.20;;
18875;SDS011;9570;50.854;13.778;2023-03-16T14:47:47;6.80;;;4.17;;
18875;SDS011;9570;50.854;13.778;2023-03-16T14:50:24;7.77;;;4.23;;
18875;SDS011;9570;50.854;13.778;2023-03-16T14:52:50;6.07;;;4.37;;
18875;SDS011;9570;50.854;13.778;2023-03-16T14:55:18;6.63;;;4.13;;
18875;SDS011;9570;50.854;13.778;2023-03-16T14:57:46;5.60;;;3.80;;
18875;SDS011;9570;50.854;13.778;2023-03-16T15:00:14;6.80;;;4.13;;
18875;SDS011;9570;50.854;13.778;2023-03-16T15:02:46;6.50;;;3.90;;
18875;SDS011;9570;50.854;13.778;2023-03-16T15:05:31;5.63;;;3.70;;
18875;SDS011;9570;50.854;13.778;2023-03-16T15:07:59;5.30;;;3.57;;
18875;SDS011;9570;50.854;13.778;2023-03-16T15:10:26;5.50;;;3.80;;
18875;SDS011;9570;50.854;13.778;2023-03-16T15:12:53;6.30;;;3.90;;
18875;SDS011;9570;50.854;13.778;2023-03-16T15:15:27;8.30;;;4.00;;
18875;SDS011;9570;50.854;13.778;2023-03-16T15:17:53;6.83;;;4.10;;
18875;SDS011;9570;50.854;13.778;2023-03-16T15:20:20;8.73;;;3.87;;
18875;SDS011;9570;50.854;13.778;2023-03-16T15:22:49;8.20;;;3.80;;
18875;SDS011;9570;50.854;13.778;2023-03-16T15:25:23;5.33;;;3.57;;
18875;SDS011;9570;50.854;13.778;2023-03-16T15:28:03;5.17;;;3.93;;
18875;SDS011;9570;50.854;13.778;2023-03-16T15:30:36;6.67;;;3.83;;
18875;SDS011;9570;50.854;13.778;2023-03-16T15:33:01;8.33;;;4.10;;
18875;SDS011;9570;50.854;13.778;2023-03-16T15:35:27;8.27;;;4.20;;
18875;SDS011;9570;50.854;13.778;2023-03-16T15:37:53;6.27;;;3.70;;
18875;SDS011;9570;50.854;13.778;2023-03-16T15:40:22;5.77;;;3.80;;
18875;SDS011;9570;50.854;13.778;2023-03-16T15:42:50;6.70;;;4.30;;
18875;SDS011;9570;50.854;13.778;2023-03-16T15:45:17;7.67;;;3.90;;
18875;SDS011;9570;50.854;13.778;2023-03-16T15:47:45;8.03;;;4.10;;
18875;SDS011;9570;50.854;13.778;2023-03-16T15:50:12;7.17;;;3.80;;
18875;SDS011;9570;50.854;13.778;2023-03-16T15:52:40;8.33;;;4.40;;
18875;SDS011;9570;50.854;13.778;2023-03-16T15:55:13;6.67;;;3.97;;
18875;SDS011;9570;50.854;13.778;2023-03-16T15:57:45;7.47;;;3.70;;
18875;SDS011;9570;50.854;13.778;2023-03-16T16:00:24;7.90;;;3.90;;
18875;SDS011;9570;50.854;13.778;2023-03-16T16:02:52;9.70;;;4.20;;
18875;SDS011;9570;50.854;13.778;2023-03-16T16:05:19;8.77;;;4.17;;